Time,TemperatureF,DewpointF,PressureIn,WindDirection,WindDirectionDegrees,WindSpeedMPH,WindSpeedGustMPH,Humidity,HourlyPrecipIn,Conditions,Clouds,dailyrainin,SoftwareType,DateUTC
2013-01-11 00:04:00,49.3,48.8,29.65,SSW,202,4.7,-999.0,98,-99.99,,,0.00,Acu-Link.com,2013-01-11 06:04:00,
2013-01-11 00:19:00,49.1,48.6,29.64,WSW,247,6.3,-999.0,98,-99.99,,,0.00,Acu-Link.com,2013-01-11 06:19:00,
2013-01-11 00:34:00,49.3,48.8,29.64,WSW,247,6.8,-999.0,98,-99.99,,,0.00,Acu-Link.com,2013-01-11 06:34:00,
2013-01-11 00:49:00,49.3,48.8,29.65,WSW,247,6.8,-999.0,98,-99.99,,,0.00,Acu-Link.com,2013-01-11 06:49:00,
2013-01-11 01:05:00,49.5,49.0,29.66,NW,315,8.9,-999.0,98,-99.99,,,0.00,Acu-Link.com,2013-01-11 07:05:00,
2013-01-11 01:20:00,49.5,49.0,29.66,SSW,202,6.8,-999.0,98,-99.99,,,0.00,Acu-Link.com,2013-01-11 07:20:00,
2013-01-11 01:35:00,49.5,49.0,29.66,West,270,6.8,-999.0,98,-99.99,,,0.00,Acu-Link.com,2013-01-11 07:35:00,
2013-01-11 01:50:00,49.5,49.0,29.67,SW,225,7.3,-999.0,98,-99.99,,,0.00,Acu-Link.com,2013-01-11 07:50:00,
2013-01-11 02:05:00,49.6,49.1,29.67,SW,225,6.3,-999.0,98,-99.99,,,0.00,Acu-Link.com,2013-01-11 08:05:00,
2013-01-11 02:20:00,49.8,49.3,29.66,West,270,10.4,-999.0,98,-99.99,,,0.00,Acu-Link.com,2013-01-11 08:20:00,
2013-01-11 02:35:00,49.6,49.1,29.65,SW,225,6.3,-999.0,98,-99.99,,,0.00,Acu-Link.com,2013-01-11 08:35:00,
2013-01-11 02:50:00,49.5,49.0,29.65,SW,225,7.8,-999.0,98,-99.99,,,0.00,Acu-Link.com,2013-01-11 08:50:00,
2013-01-11 03:11:00,49.5,49.0,29.66,WSW,247,5.8,-999.0,98,-99.99,,,0.00,Acu-Link.com,2013-01-11 09:11:00,
2013-01-11 03:26:00,49.1,48.6,29.65,SW,225,5.3,-999.0,98,-99.99,,,0.00,Acu-Link.com,2013-01-11 09:26:00,
2013-01-11 03:42:00,49.1,48.6,29.65,WSW,247,6.8,-999.0,98,-99.99,,,0.00,Acu-Link.com,2013-01-11 09:42:00,
2013-01-11 03:57:00,48.9,48.4,29.65,South,180,5.3,-999.0,98,-99.99,,,0.00,Acu-Link.com,2013-01-11 09:57:00,
2013-01-11 04:12:00,48.7,48.2,29.66,West,270,8.3,-999.0,98,-99.99,,,0.00,Acu-Link.com,2013-01-11 10:12:00,
2013-01-11 04:27:00,48.7,48.2,29.64,West,270,6.3,-999.0,98,-99.99,,,0.00,Acu-Link.com,2013-01-11 10:27:00,
2013-01-11 04:42:00,48.7,48.2,29.65,SW,225,5.8,-999.0,98,-99.99,,,0.00,Acu-Link.com,2013-01-11 10:42:00,
2013-01-11 04:57:00,48.7,48.2,29.64,SSW,202,6.3,-999.0,98,-99.99,,,0.00,Acu-Link.com,2013-01-11 10:57:00,
2013-01-11 05:12:00,48.7,48.2,29.64,SW,225,8.9,-999.0,98,-99.99,,,0.00,Acu-Link.com,2013-01-11 11:12:00,
2013-01-11 05:27:00,48.9,48.4,29.64,SW,225,6.3,-999.0,98,-99.99,,,0.00,Acu-Link.com,2013-01-11 11:27:00,
2013-01-11 05:42:00,48.9,48.4,29.63,West,270,8.9,-999.0,98,-99.99,,,0.00,Acu-Link.com,2013-01-11 11:42:00,
2013-01-11 05:58:00,49.1,48.6,29.64,SW,225,9.4,-999.0,98,-99.99,,,0.00,Acu-Link.com,2013-01-11 11:58:00,
2013-01-11 06:13:00,49.1,48.6,29.65,WSW,247,6.3,-999.0,98,-99.99,,,0.00,Acu-Link.com,2013-01-11 12:13:00,
2013-01-11 06:28:00,49.1,48.6,29.63,South,180,10.9,-999.0,98,-99.99,,,0.00,Acu-Link.com,2013-01-11 12:28:00,
2013-01-11 06:43:00,49.1,48.6,29.64,SW,225,7.3,-999.0,98,-99.99,,,0.00,Acu-Link.com,2013-01-11 12:43:00,
2013-01-11 06:58:00,49.1,48.6,29.65,South,180,8.9,-999.0,98,-99.99,,,0.00,Acu-Link.com,2013-01-11 12:58:00,
2013-01-11 07:13:00,49.1,48.6,29.64,SSW,202,11.9,-999.0,98,-99.99,,,0.00,Acu-Link.com,2013-01-11 13:13:00,
2013-01-11 07:28:00,49.1,48.6,29.64,SW,225,8.9,-999.0,98,-99.99,,,0.00,Acu-Link.com,2013-01-11 13:28:00,
2013-01-11 07:43:00,49.1,48.3,29.63,SW,225,6.8,-999.0,97,-99.99,,,0.00,Acu-Link.com,2013-01-11 13:43:00,
2013-01-11 07:59:00,49.1,48.3,29.62,SW,225,6.3,-999.0,97,-99.99,,,0.00,Acu-Link.com,2013-01-11 13:59:00,
2013-01-11 08:14:00,49.1,48.3,29.62,SW,225,7.8,-999.0,97,-99.99,,,0.00,Acu-Link.com,2013-01-11 14:14:00,
2013-01-11 08:29:00,49.3,48.2,29.62,South,180,6.8,-999.0,96,-99.99,,,0.00,Acu-Link.com,2013-01-11 14:29:00,
2013-01-11 08:44:00,49.3,47.9,29.62,South,180,11.4,-999.0,95,-99.99,,,0.00,Acu-Link.com,2013-01-11 14:44:00,
2013-01-11 08:59:00,49.8,48.1,29.62,South,180,9.4,-999.0,94,-99.99,,,0.00,Acu-Link.com,2013-01-11 14:59:00,
2013-01-11 09:14:00,50.0,48.3,29.61,South,180,10.4,-999.0,94,-99.99,,,0.00,Acu-Link.com,2013-01-11 15:14:00,
2013-01-11 09:29:00,50.9,48.7,29.61,SSW,202,12.5,-999.0,92,-99.99,,,0.00,Acu-Link.com,2013-01-11 15:29:00,
2013-01-11 09:44:00,52.3,49.5,29.60,SW,225,20.2,-999.0,90,-99.99,,,0.00,Acu-Link.com,2013-01-11 15:44:00,
2013-01-11 09:59:00,51.8,48.7,29.60,WSW,247,10.4,-999.0,89,-99.99,,,0.01,Acu-Link.com,2013-01-11 15:59:00,
2013-01-11 10:15:00,52.0,48.9,29.61,SW,225,12.5,-999.0,89,-99.99,,,0.01,Acu-Link.com,2013-01-11 16:15:00,
2013-01-11 10:30:00,52.3,48.9,29.60,WSW,247,9.9,-999.0,88,-99.99,,,0.01,Acu-Link.com,2013-01-11 16:30:00,
2013-01-11 10:45:00,52.7,49.2,29.59,West,270,8.9,-999.0,88,-99.99,,,0.01,Acu-Link.com,2013-01-11 16:45:00,
2013-01-11 11:00:00,54.0,49.6,29.59,SW,225,13.0,-999.0,85,-99.99,,,0.01,Acu-Link.com,2013-01-11 17:00:00,
2013-01-11 11:15:00,54.9,49.5,29.57,WSW,247,14.5,-999.0,82,-99.99,,,0.01,Acu-Link.com,2013-01-11 17:15:00,
2013-01-11 11:30:00,54.9,49.2,29.55,SW,225,10.9,-999.0,81,-99.99,,,0.01,Acu-Link.com,2013-01-11 17:30:00,
2013-01-11 11:45:00,55.6,49.5,29.55,WSW,247,10.9,-999.0,80,-99.99,,,0.01,Acu-Link.com,2013-01-11 17:45:00,
2013-01-11 12:00:00,56.7,50.3,29.53,West,270,13.0,-999.0,79,-99.99,,,0.01,Acu-Link.com,2013-01-11 18:00:00,
2013-01-11 12:16:00,57.2,50.4,29.53,WSW,247,11.9,-999.0,78,-99.99,,,0.01,Acu-Link.com,2013-01-11 18:16:00,
2013-01-11 12:31:00,57.4,50.2,29.52,SW,225,22.7,-999.0,77,-99.99,,,0.01,Acu-Link.com,2013-01-11 18:31:00,
2013-01-11 12:46:00,58.1,50.6,29.53,WSW,247,17.1,-999.0,76,-99.99,,,0.01,Acu-Link.com,2013-01-11 18:46:00,
2013-01-11 13:01:00,57.7,50.2,29.53,West,270,9.9,-999.0,76,-99.99,,,0.01,Acu-Link.com,2013-01-11 19:01:00,
2013-01-11 13:16:00,58.6,50.7,29.52,SW,225,14.5,-999.0,75,-99.99,,,0.01,Acu-Link.com,2013-01-11 19:16:00,
2013-01-11 13:31:00,62.2,51.9,29.53,WSW,247,9.9,-999.0,69,-99.99,,,0.01,Acu-Link.com,2013-01-11 19:31:00,
2013-01-11 13:46:00,61.2,50.9,29.52,SW,225,13.0,-999.0,69,-99.99,,,0.01,Acu-Link.com,2013-01-11 19:46:00,
2013-01-11 14:01:00,60.4,50.6,29.50,SW,225,8.9,-999.0,70,-99.99,,,0.01,Acu-Link.com,2013-01-11 20:01:00,
2013-01-11 14:16:00,59.9,50.5,29.51,SW,225,11.4,-999.0,71,-99.99,,,0.01,Acu-Link.com,2013-01-11 20:16:00,
2013-01-11 14:32:00,59.7,50.3,29.50,SW,225,10.4,-999.0,71,-99.99,,,0.01,Acu-Link.com,2013-01-11 20:32:00,
2013-01-11 14:47:00,59.5,50.8,29.50,SW,225,12.5,-999.0,73,-99.99,,,0.01,Acu-Link.com,2013-01-11 20:47:00,
2013-01-11 15:02:00,59.5,50.1,29.51,WSW,247,13.5,-999.0,71,-99.99,,,0.01,Acu-Link.com,2013-01-11 21:02:00,
2013-01-11 15:17:00,59.5,49.7,29.50,SW,225,11.4,-999.0,70,-99.99,,,0.01,Acu-Link.com,2013-01-11 21:17:00,
2013-01-11 15:32:00,59.5,49.7,29.51,SW,225,10.4,-999.0,70,-99.99,,,0.01,Acu-Link.com,2013-01-11 21:32:00,
2013-01-11 15:47:00,59.9,50.1,29.50,SW,225,11.9,-999.0,70,-99.99,,,0.01,Acu-Link.com,2013-01-11 21:47:00,
2013-01-11 16:02:00,60.1,50.3,29.50,SSW,202,9.4,-999.0,70,-99.99,,,0.01,Acu-Link.com,2013-01-11 22:02:00,
2013-01-11 16:17:00,59.9,50.1,29.49,West,270,11.4,-999.0,70,-99.99,,,0.01,Acu-Link.com,2013-01-11 22:17:00,
2013-01-11 16:33:00,60.3,50.1,29.50,SSW,202,13.0,-999.0,69,-99.99,,,0.01,Acu-Link.com,2013-01-11 22:33:00,
2013-01-11 16:48:00,60.3,50.1,29.50,SSW,202,10.4,-999.0,69,-99.99,,,0.01,Acu-Link.com,2013-01-11 22:48:00,
2013-01-11 17:03:00,59.5,49.3,29.50,WSW,247,9.4,-999.0,69,-99.99,,,0.01,Acu-Link.com,2013-01-11 23:03:00,
2013-01-11 17:18:00,59.5,49.3,29.51,SW,225,7.3,-999.0,69,-99.99,,,0.01,Acu-Link.com,2013-01-11 23:18:00,
2013-01-11 17:33:00,58.5,49.1,29.52,SW,225,9.4,-999.0,71,-99.99,,,0.01,Acu-Link.com,2013-01-11 23:33:00,
2013-01-11 17:48:00,58.1,49.5,29.51,WSW,247,9.4,-999.0,73,-99.99,,,0.01,Acu-Link.com,2013-01-11 23:48:00,
2013-01-11 18:03:00,59.0,49.6,29.52,SW,225,9.9,-999.0,71,-99.99,,,0.01,Acu-Link.com,2013-01-12 00:03:00,
2013-01-11 18:18:00,59.0,49.2,29.52,SW,225,7.8,-999.0,70,-99.99,,,0.01,Acu-Link.com,2013-01-12 00:18:00,
2013-01-11 18:33:00,59.4,49.2,29.52,West,270,14.5,-999.0,69,-99.99,,,0.01,Acu-Link.com,2013-01-12 00:33:00,
2013-01-11 18:49:00,59.7,48.7,29.54,WSW,247,14.5,-999.0,67,-99.99,,,0.01,Acu-Link.com,2013-01-12 00:49:00,
2013-01-11 19:04:00,59.7,49.1,29.53,SW,225,10.4,-999.0,68,-99.99,,,0.01,Acu-Link.com,2013-01-12 01:04:00,
2013-01-11 19:19:00,59.7,48.7,29.54,West,270,12.5,-999.0,67,-99.99,,,0.01,Acu-Link.com,2013-01-12 01:19:00,
2013-01-11 19:34:00,59.7,48.7,29.54,WSW,247,12.5,-999.0,67,-99.99,,,0.01,Acu-Link.com,2013-01-12 01:34:00,
2013-01-11 19:49:00,59.4,48.4,29.54,SW,225,10.4,-999.0,67,-99.99,,,0.01,Acu-Link.com,2013-01-12 01:49:00,
2013-01-11 20:04:00,59.4,48.8,29.55,SW,225,11.9,-999.0,68,-99.99,,,0.01,Acu-Link.com,2013-01-12 02:04:00,
2013-01-11 20:19:00,59.4,48.8,29.54,WSW,247,15.5,-999.0,68,-99.99,,,0.01,Acu-Link.com,2013-01-12 02:19:00,
2013-01-11 20:34:00,59.4,48.8,29.54,SW,225,11.9,-999.0,68,-99.99,,,0.01,Acu-Link.com,2013-01-12 02:34:00,
2013-01-11 20:49:00,59.9,48.9,29.55,West,270,11.9,-999.0,67,-99.99,,,0.01,Acu-Link.com,2013-01-12 02:49:00,
2013-01-11 21:05:00,59.9,48.9,29.55,WSW,247,12.5,-999.0,67,-99.99,,,0.01,Acu-Link.com,2013-01-12 03:05:00,
2013-01-11 21:20:00,59.9,48.5,29.56,WSW,247,17.1,-999.0,66,-99.99,,,0.01,Acu-Link.com,2013-01-12 03:20:00,
2013-01-11 21:35:00,59.4,48.4,29.56,WSW,247,14.0,-999.0,67,-99.99,,,0.01,Acu-Link.com,2013-01-12 03:35:00,
2013-01-11 21:50:00,58.8,48.3,29.56,WNW,292,10.4,-999.0,68,-99.99,,,0.01,Acu-Link.com,2013-01-12 03:50:00,
2013-01-11 22:05:00,58.3,48.2,29.57,WSW,247,12.5,-999.0,69,-99.99,,,0.01,Acu-Link.com,2013-01-12 04:05:00,
2013-01-11 22:20:00,57.7,48.0,29.57,WSW,247,15.0,-999.0,70,-99.99,,,0.01,Acu-Link.com,2013-01-12 04:20:00,
2013-01-11 22:35:00,57.0,47.7,29.58,SW,225,9.4,-999.0,71,-99.99,,,0.01,Acu-Link.com,2013-01-12 04:35:00,
2013-01-11 22:50:00,56.7,47.8,29.59,WSW,247,8.9,-999.0,72,-99.99,,,0.01,Acu-Link.com,2013-01-12 04:50:00,
2013-01-11 23:06:00,56.3,47.8,29.60,West,270,6.8,-999.0,73,-99.99,,,0.01,Acu-Link.com,2013-01-12 05:06:00,
2013-01-11 23:21:00,55.9,47.7,29.60,WSW,247,7.3,-999.0,74,-99.99,,,0.01,Acu-Link.com,2013-01-12 05:21:00,
2013-01-11 23:36:00,55.9,47.7,29.61,WSW,247,6.8,-999.0,74,-99.99,,,0.01,Acu-Link.com,2013-01-12 05:36:00,
2013-01-11 23:51:00,56.1,47.9,29.61,SW,225,6.3,-999.0,74,-99.99,,,0.01,Acu-Link.com,2013-01-12 05:51:00,